sensor_id;sensor_type;location;lat;lon;timestamp;temperature;humidity
65972;SHT31;52726;48.852;9.152;2023-08-01T00:01:00;17.73;85.38
65972;SHT31;52726;48.852;9.152;2023-08-01T00:03:25;17.77;84.93
65972;SHT31;52726;48.852;9.152;2023-08-01T00:05:51;17.74;84.84
65972;SHT31;52726;48.852;9.152;2023-08-01T00:08:16;17.75;85.72
65972;SHT31;52726;48.852;9.152;2023-08-01T00:14:04;17.74;85.45
65972;SHT31;52726;48.852;9.152;2023-08-01T00:16:29;17.71;87.24
65972;SHT31;52726;48.852;9.152;2023-08-01T00:18:55;17.67;86.79
65972;SHT31;52726;48.852;9.152;2023-08-01T00:21:20;17.66;87.10
65972;SHT31;52726;48.852;9.152;2023-08-01T00:23:46;17.66;88.13
65972;SHT31;52726;48.852;9.152;2023-08-01T00:26:11;17.60;89.22
65972;SHT31;52726;48.852;9.152;2023-08-01T00:28:36;17.51;89.68
65972;SHT31;52726;48.852;9.152;2023-08-01T00:31:06;17.49;90.34
65972;SHT31;52726;48.852;9.152;2023-08-01T00:33:32;17.47;90.80
65972;SHT31;52726;48.852;9.152;2023-08-01T00:35:57;17.42;91.17
65972;SHT31;52726;48.852;9.152;2023-08-01T00:41:44;17.39;91.49
65972;SHT31;52726;48.852;9.152;2023-08-01T00:44:09;17.42;91.52
65972;SHT31;52726;48.852;9.152;2023-08-01T00:46:35;17.40;91.13
65972;SHT31;52726;48.852;9.152;2023-08-01T00:49:00;17.44;91.02
65972;SHT31;52726;48.852;9.152;2023-08-01T00:51:26;17.46;90.32
65972;SHT31;52726;48.852;9.152;2023-08-01T00:53:52;17.46;90.70
65972;SHT31;52726;48.852;9.152;2023-08-01T00:56:18;17.44;90.14
65972;SHT31;52726;48.852;9.152;2023-08-01T00:58:43;17.43;89.02
65972;SHT31;52726;48.852;9.152;2023-08-01T01:01:09;17.44;88.89
65972;SHT31;52726;48.852;9.152;2023-08-01T01:03:34;17.47;89.40
65972;SHT31;52726;48.852;9.152;2023-08-01T01:06:24;17.50;89.26
65972;SHT31;52726;48.852;9.152;2023-08-01T01:08:51;17.46;88.67
65972;SHT31;52726;48.852;9.152;2023-08-01T01:11:16;17.47;87.90
65972;SHT31;52726;48.852;9.152;2023-08-01T01:13:41;17.47;88.10
65972;SHT31;52726;48.852;9.152;2023-08-01T01:16:07;17.46;87.50
65972;SHT31;52726;48.852;9.152;2023-08-01T01:18:32;17.47;86.86
65972;SHT31;52726;48.852;9.152;2023-08-01T01:20:57;17.47;86.78
65972;SHT31;52726;48.852;9.152;2023-08-01T01:23:24;17.49;86.89
65972;SHT31;52726;48.852;9.152;2023-08-01T01:25:51;17.49;86.57
65972;SHT31;52726;48.852;9.152;2023-08-01T01:28:17;17.49;86.88
65972;SHT31;52726;48.852;9.152;2023-08-01T01:30:43;17.47;86.65
65972;SHT31;52726;48.852;9.152;2023-08-01T01:33:11;17.47;87.41
65972;SHT31;52726;48.852;9.152;2023-08-01T01:35:36;17.40;87.05
65972;SHT31;52726;48.852;9.152;2023-08-01T01:38:02;17.40;87.86
65972;SHT31;52726;48.852;9.152;2023-08-01T01:40:31;17.33;89.00
65972;SHT31;52726;48.852;9.152;2023-08-01T01:42:57;17.22;89.31
65972;SHT31;52726;48.852;9.152;2023-08-01T01:45:23;17.16;90.23
65972;SHT31;52726;48.852;9.152;2023-08-01T01:47:48;17.15;90.98
65972;SHT31;52726;48.852;9.152;2023-08-01T01:50:13;17.05;90.26
65972;SHT31;52726;48.852;9.152;2023-08-01T01:52:39;17.05;91.12
65972;SHT31;52726;48.852;9.152;2023-08-01T01:55:04;17.05;90.84
65972;SHT31;52726;48.852;9.152;2023-08-01T01:57:30;17.02;89.91
65972;SHT31;52726;48.852;9.152;2023-08-01T01:59:55;17.02;91.04
65972;SHT31;52726;48.852;9.152;2023-08-01T02:02:21;17.04;90.66
65972;SHT31;52726;48.852;9.152;2023-08-01T02:04:47;17.01;91.45
65972;SHT31;52726;48.852;9.152;2023-08-01T02:07:13;16.98;91.06
65972;SHT31;52726;48.852;9.152;2023-08-01T02:09:39;17.01;91.47
65972;SHT31;52726;48.852;9.152;2023-08-01T02:12:05;17.02;91.83
65972;SHT31;52726;48.852;9.152;2023-08-01T02:14:30;16.99;92.03
65972;SHT31;52726;48.852;9.152;2023-08-01T02:16:56;16.98;92.40
65972;SHT31;52726;48.852;9.152;2023-08-01T02:19:21;16.95;92.88
65972;SHT31;52726;48.852;9.152;2023-08-01T02:21:46;16.88;92.93
65972;SHT31;52726;48.852;9.152;2023-08-01T02:24:12;16.89;93.27
65972;SHT31;52726;48.852;9.152;2023-08-01T02:26:37;16.87;93.46
65972;SHT31;52726;48.852;9.152;2023-08-01T02:29:03;16.88;93.76
65972;SHT31;52726;48.852;9.152;2023-08-01T02:31:28;16.91;93.94
65972;SHT31;52726;48.852;9.152;2023-08-01T02:33:53;16.87;93.97
65972;SHT31;52726;48.852;9.152;2023-08-01T02:36:18;16.88;94.14
65972;SHT31;52726;48.852;9.152;2023-08-01T02:38:44;16.89;93.88
65972;SHT31;52726;48.852;9.152;2023-08-01T02:41:09;16.94;94.08
65972;SHT31;52726;48.852;9.152;2023-08-01T02:43:35;16.95;94.29
65972;SHT31;52726;48.852;9.152;2023-08-01T02:46:01;16.92;94.32
65972;SHT31;52726;48.852;9.152;2023-08-01T02:48:27;16.94;94.19
65972;SHT31;52726;48.852;9.152;2023-08-01T02:50:52;16.92;93.34
65972;SHT31;52726;48.852;9.152;2023-08-01T02:53:17;16.92;93.81
65972;SHT31;52726;48.852;9.152;2023-08-01T02:55:44;16.89;93.75
65972;SHT31;52726;48.852;9.152;2023-08-01T02:58:12;16.95;93.72
65972;SHT31;52726;48.852;9.152;2023-08-01T03:00:38;16.94;93.82
65972;SHT31;52726;48.852;9.152;2023-08-01T03:03:04;16.94;93.31
65972;SHT31;52726;48.852;9.152;2023-08-01T03:05:29;16.92;93.31
65972;SHT31;52726;48.852;9.152;2023-08-01T03:07:55;16.95;93.23
65972;SHT31;52726;48.852;9.152;2023-08-01T03:10:20;16.96;93.15
65972;SHT31;52726;48.852;9.152;2023-08-01T03:12:45;16.96;93.14
65972;SHT31;52726;48.852;9.152;2023-08-01T03:15:10;16.96;92.47
65972;SHT31;52726;48.852;9.152;2023-08-01T03:17:36;16.98;92.02
65972;SHT31;52726;48.852;9.152;2023-08-01T03:20:01;17.01;91.83
65972;SHT31;52726;48.852;9.152;2023-08-01T03:22:26;17.01;92.05
65972;SHT31;52726;48.852;9.152;2023-08-01T03:24:52;17.01;91.90
65972;SHT31;52726;48.852;9.152;2023-08-01T03:27:17;17.04;92.29
65972;SHT31;52726;48.852;9.152;2023-08-01T03:29:43;17.02;92.45
65972;SHT31;52726;48.852;9.152;2023-08-01T03:32:08;17.01;92.88
65972;SHT31;52726;48.852;9.152;2023-08-01T03:34:33;16.94;91.45
65972;SHT31;52726;48.852;9.152;2023-08-01T03:36:58;16.96;91.98
65972;SHT31;52726;48.852;9.152;2023-08-01T03:39:24;16.96;92.15
65972;SHT31;52726;48.852;9.152;2023-08-01T03:41:50;17.02;91.68
65972;SHT31;52726;48.852;9.152;2023-08-01T03:44:16;16.98;90.86
65972;SHT31;52726;48.852;9.152;2023-08-01T03:46:42;16.96;91.85
65972;SHT31;52726;48.852;9.152;2023-08-01T03:49:07;16.99;91.63
65972;SHT31;52726;48.852;9.152;2023-08-01T03:51:33;17.02;90.65
65972;SHT31;52726;48.852;9.152;2023-08-01T03:53:58;17.05;90.60
65972;SHT31;52726;48.852;9.152;2023-08-01T03:56:24;17.04;89.95
65972;SHT31;52726;48.852;9.152;2023-08-01T03:58:49;17.12;89.18
65972;SHT31;52726;48.852;9.152;2023-08-01T04:01:14;17.16;88.59
65972;SHT31;52726;48.852;9.152;2023-08-01T04:03:40;17.26;87.78
65972;SHT31;52726;48.852;9.152;2023-08-01T04:06:05;17.29;88.73
65972;SHT31;52726;48.852;9.152;2023-08-01T04:08:30;17.32;88.23
65972;SHT31;52726;48.852;9.152;2023-08-01T04:10:56;17.36;86.66
65972;SHT31;52726;48.852;9.152;2023-08-01T04:13:21;17.43;87.10
65972;SHT31;52726;48.852;9.152;2023-08-01T04:15:47;17.44;86.68
65972;SHT31;52726;48.852;9.152;2023-08-01T04:18:13;17.46;86.81
65972;SHT31;52726;48.852;9.152;2023-08-01T04:20:38;17.49;86.11
65972;SHT31;52726;48.852;9.152;2023-08-01T04:23:03;17.49;86.68
65972;SHT31;52726;48.852;9.152;2023-08-01T04:25:28;17.46;86.66
65972;SHT31;52726;48.852;9.152;2023-08-01T04:27:54;17.46;86.58
65972;SHT31;52726;48.852;9.152;2023-08-01T04:30:19;17.44;86.66
65972;SHT31;52726;48.852;9.152;2023-08-01T04:32:44;17.44;86.60
65972;SHT31;52726;48.852;9.152;2023-08-01T04:35:10;17.44;86.16
65972;SHT31;52726;48.852;9.152;2023-08-01T04:37:35;17.50;85.44
65972;SHT31;52726;48.852;9.152;2023-08-01T04:40:00;17.59;85.07
65972;SHT31;52726;48.852;9.152;2023-08-01T04:42:26;17.63;85.17
65972;SHT31;52726;48.852;9.152;2023-08-01T04:44:51;17.59;85.47
65972;SHT31;52726;48.852;9.152;2023-08-01T04:47:17;17.51;86.27
65972;SHT31;52726;48.852;9.152;2023-08-01T04:49:42;17.49;86.36
65972;SHT31;52726;48.852;9.152;2023-08-01T04:52:07;17.46;86.28
65972;SHT31;52726;48.852;9.152;2023-08-01T04:54:33;17.47;86.47
65972;SHT31;52726;48.852;9.152;2023-08-01T04:56:58;17.53;85.79
65972;SHT31;52726;48.852;9.152;2023-08-01T04:59:23;17.54;86.05
65972;SHT31;52726;48.852;9.152;2023-08-01T05:01:49;17.60;84.98
65972;SHT31;52726;48.852;9.152;2023-08-01T05:04:14;17.71;84.99
65972;SHT31;52726;48.852;9.152;2023-08-01T05:06:40;17.62;87.05
65972;SHT31;52726;48.852;9.152;2023-08-01T05:09:05;17.55;85.93
65972;SHT31;52726;48.852;9.152;2023-08-01T05:11:32;17.50;86.29
65972;SHT31;52726;48.852;9.152;2023-08-01T05:13:57;17.53;85.08
65972;SHT31;52726;48.852;9.152;2023-08-01T05:16:22;17.54;84.77
65972;SHT31;52726;48.852;9.152;2023-08-01T05:18:48;17.54;85.35
65972;SHT31;52726;48.852;9.152;2023-08-01T05:21:13;17.53;85.88
65972;SHT31;52726;48.852;9.152;2023-08-01T05:23:38;17.51;85.41
65972;SHT31;52726;48.852;9.152;2023-08-01T05:26:04;17.57;85.30
65972;SHT31;52726;48.852;9.152;2023-08-01T05:28:29;17.54;85.70
65972;SHT31;52726;48.852;9.152;2023-08-01T05:30:54;17.49;85.70
65972;SHT31;52726;48.852;9.152;2023-08-01T05:33:20;17.49;86.16
65972;SHT31;52726;48.852;9.152;2023-08-01T05:35:45;17.46;86.03
65972;SHT31;52726;48.852;9.152;2023-08-01T05:38:10;17.47;86.44
65972;SHT31;52726;48.852;9.152;2023-08-01T05:40:36;17.50;86.22
65972;SHT31;52726;48.852;9.152;2023-08-01T05:43:01;17.53;87.21
65972;SHT31;52726;48.852;9.152;2023-08-01T05:45:26;17.53;87.40
65972;SHT31;52726;48.852;9.152;2023-08-01T05:47:52;17.51;87.62
65972;SHT31;52726;48.852;9.152;2023-08-01T05:50:17;17.49;86.94
65972;SHT31;52726;48.852;9.152;2023-08-01T05:52:43;17.50;86.14
65972;SHT31;52726;48.852;9.152;2023-08-01T05:55:09;17.54;85.89
65972;SHT31;52726;48.852;9.152;2023-08-01T05:57:34;17.57;86.40
65972;SHT31;52726;48.852;9.152;2023-08-01T06:00:00;17.59;86.94
65972;SHT31;52726;48.852;9.152;2023-08-01T06:02:25;17.63;86.08
65972;SHT31;52726;48.852;9.152;2023-08-01T06:04:50;17.66;85.45
65972;SHT31;52726;48.852;9.152;2023-08-01T06:07:16;17.70;85.04
65972;SHT31;52726;48.852;9.152;2023-08-01T06:09:41;17.74;84.57
65972;SHT31;52726;48.852;9.152;2023-08-01T06:12:07;17.75;84.24
65972;SHT31;52726;48.852;9.152;2023-08-01T06:14:32;17.78;83.64
65972;SHT31;52726;48.852;9.152;2023-08-01T06:16:57;17.81;83.96
65972;SHT31;52726;48.852;9.152;2023-08-01T06:19:23;17.82;83.76
65972;SHT31;52726;48.852;9.152;2023-08-01T06:21:48;17.82;84.03
65972;SHT31;52726;48.852;9.152;2023-08-01T06:24:13;17.82;84.30
65972;SHT31;52726;48.852;9.152;2023-08-01T06:26:38;17.78;84.01
65972;SHT31;52726;48.852;9.152;2023-08-01T06:29:04;17.69;85.10
65972;SHT31;52726;48.852;9.152;2023-08-01T06:31:29;17.53;87.21
65972;SHT31;52726;48.852;9.152;2023-08-01T06:33:55;17.32;87.58
65972;SHT31;52726;48.852;9.152;2023-08-01T06:36:21;17.15;88.78
65972;SHT31;52726;48.852;9.152;2023-08-01T06:38:46;17.04;90.29
65972;SHT31;52726;48.852;9.152;2023-08-01T06:41:11;16.91;90.33
65972;SHT31;52726;48.852;9.152;2023-08-01T06:43:37;16.81;91.23
65972;SHT31;52726;48.852;9.152;2023-08-01T06:46:03;16.74;91.19
65972;SHT31;52726;48.852;9.152;2023-08-01T06:48:29;16.69;91.54
65972;SHT31;52726;48.852;9.152;2023-08-01T06:50:54;16.63;92.01
65972;SHT31;52726;48.852;9.152;2023-08-01T06:53:19;16.58;92.35
65972;SHT31;52726;48.852;9.152;2023-08-01T06:55:45;16.57;93.07
65972;SHT31;52726;48.852;9.152;2023-08-01T06:58:11;16.58;92.77
65972;SHT31;52726;48.852;9.152;2023-08-01T07:00:36;16.61;93.14
65972;SHT31;52726;48.852;9.152;2023-08-01T07:03:01;16.63;93.06
65972;SHT31;52726;48.852;9.152;2023-08-01T07:05:27;16.64;92.88
65972;SHT31;52726;48.852;9.152;2023-08-01T07:07:52;16.63;92.40
65972;SHT31;52726;48.852;9.152;2023-08-01T07:10:17;16.72;92.77
65972;SHT31;52726;48.852;9.152;2023-08-01T07:12:43;16.72;91.41
65972;SHT31;52726;48.852;9.152;2023-08-01T07:15:09;16.74;91.12
65972;SHT31;52726;48.852;9.152;2023-08-01T07:17:34;16.74;89.61
65972;SHT31;52726;48.852;9.152;2023-08-01T07:19:59;16.72;89.68
65972;SHT31;52726;48.852;9.152;2023-08-01T07:22:25;16.71;89.44
65972;SHT31;52726;48.852;9.152;2023-08-01T07:24:54;16.67;89.80
65972;SHT31;52726;48.852;9.152;2023-08-01T07:27:20;16.60;90.79
65972;SHT31;52726;48.852;9.152;2023-08-01T07:29:45;16.53;90.62
65972;SHT31;52726;48.852;9.152;2023-08-01T07:32:10;16.40;91.14
65972;SHT31;52726;48.852;9.152;2023-08-01T07:34:36;16.31;91.71
65972;SHT31;52726;48.852;9.152;2023-08-01T07:37:01;16.24;92.07
65972;SHT31;52726;48.852;9.152;2023-08-01T07:39:26;16.19;92.58
65972;SHT31;52726;48.852;9.152;2023-08-01T07:41:52;16.16;93.05
65972;SHT31;52726;48.852;9.152;2023-08-01T07:44:17;16.14;92.86
65972;SHT31;52726;48.852;9.152;2023-08-01T07:46:42;16.23;92.73
65972;SHT31;52726;48.852;9.152;2023-08-01T07:49:08;16.23;92.57
65972;SHT31;52726;48.852;9.152;2023-08-01T07:51:33;16.26;92.55
65972;SHT31;52726;48.852;9.152;2023-08-01T07:53:59;16.29;93.29
65972;SHT31;52726;48.852;9.152;2023-08-01T07:56:24;16.33;93.48
65972;SHT31;52726;48.852;9.152;2023-08-01T07:58:50;16.44;93.55
65972;SHT31;52726;48.852;9.152;2023-08-01T08:01:15;16.54;93.15
65972;SHT31;52726;48.852;9.152;2023-08-01T08:03:40;16.65;93.06
65972;SHT31;52726;48.852;9.152;2023-08-01T08:06:05;16.79;92.27
65972;SHT31;52726;48.852;9.152;2023-08-01T08:08:31;16.82;92.49
65972;SHT31;52726;48.852;9.152;2023-08-01T08:10:59;16.82;92.58
65972;SHT31;52726;48.852;9.152;2023-08-01T08:13:24;16.78;92.50
65972;SHT31;52726;48.852;9.152;2023-08-01T08:15:50;16.75;92.29
65972;SHT31;52726;48.852;9.152;2023-08-01T08:18:16;16.75;92.54
65972;SHT31;52726;48.852;9.152;2023-08-01T08:20:45;16.77;92.64
65972;SHT31;52726;48.852;9.152;2023-08-01T08:23:11;16.82;92.77
65972;SHT31;52726;48.852;9.152;2023-08-01T08:25:39;16.85;92.88
65972;SHT31;52726;48.852;9.152;2023-08-01T08:28:04;16.91;92.74
65972;SHT31;52726;48.852;9.152;2023-08-01T08:30:29;16.94;92.94
65972;SHT31;52726;48.852;9.152;2023-08-01T08:32:57;16.94;91.89
65972;SHT31;52726;48.852;9.152;2023-08-01T08:35:23;16.96;91.47
65972;SHT31;52726;48.852;9.152;2023-08-01T08:37:48;17.05;91.53
65972;SHT31;52726;48.852;9.152;2023-08-01T08:40:13;17.18;92.15
65972;SHT31;52726;48.852;9.152;2023-08-01T08:42:39;17.40;92.09
65972;SHT31;52726;48.852;9.152;2023-08-01T08:45:05;17.57;91.71
65972;SHT31;52726;48.852;9.152;2023-08-01T08:47:36;17.66;91.27
65972;SHT31;52726;48.852;9.152;2023-08-01T08:50:01;17.78;91.51
65972;SHT31;52726;48.852;9.152;2023-08-01T08:52:27;17.73;90.38
65972;SHT31;52726;48.852;9.152;2023-08-01T08:54:52;17.80;89.59
65972;SHT31;52726;48.852;9.152;2023-08-01T08:57:19;17.84;90.26
65972;SHT31;52726;48.852;9.152;2023-08-01T08:59:46;17.90;90.23
65972;SHT31;52726;48.852;9.152;2023-08-01T09:02:13;17.92;90.17
65972;SHT31;52726;48.852;9.152;2023-08-01T09:04:39;17.87;89.31
65972;SHT31;52726;48.852;9.152;2023-08-01T09:07:08;17.78;90.59
65972;SHT31;52726;48.852;9.152;2023-08-01T09:09:34;17.77;89.79
65972;SHT31;52726;48.852;9.152;2023-08-01T09:12:00;17.73;89.67
65972;SHT31;52726;48.852;9.152;2023-08-01T09:14:25;17.66;89.73
65972;SHT31;52726;48.852;9.152;2023-08-01T09:16:50;17.60;90.37
65972;SHT31;52726;48.852;9.152;2023-08-01T09:19:20;17.62;90.76
65972;SHT31;52726;48.852;9.152;2023-08-01T09:21:47;17.63;91.25
65972;SHT31;52726;48.852;9.152;2023-08-01T09:24:15;17.64;91.41
65972;SHT31;52726;48.852;9.152;2023-08-01T09:26:42;17.62;92.08
65972;SHT31;52726;48.852;9.152;2023-08-01T09:29:08;17.66;91.69
65972;SHT31;52726;48.852;9.152;2023-08-01T09:31:35;17.73;92.00
65972;SHT31;52726;48.852;9.152;2023-08-01T09:34:02;17.74;92.16
65972;SHT31;52726;48.852;9.152;2023-08-01T09:36:31;17.81;92.68
65972;SHT31;52726;48.852;9.152;2023-08-01T09:39:01;17.77;92.36
65972;SHT31;52726;48.852;9.152;2023-08-01T09:41:28;17.82;92.76
65972;SHT31;52726;48.852;9.152;2023-08-01T09:43:54;18.01;92.59
65972;SHT31;52726;48.852;9.152;2023-08-01T09:46:20;18.26;92.86
65972;SHT31;52726;48.852;9.152;2023-08-01T09:48:45;18.36;92.17
65972;SHT31;52726;48.852;9.152;2023-08-01T09:51:12;18.29;91.63
65972;SHT31;52726;48.852;9.152;2023-08-01T09:53:50;18.21;91.10
65972;SHT31;52726;48.852;9.152;2023-08-01T09:56:20;18.19;91.61
65972;SHT31;52726;48.852;9.152;2023-08-01T09:58:49;18.18;91.35
65972;SHT31;52726;48.852;9.152;2023-08-01T10:01:18;18.19;91.22
65972;SHT31;52726;48.852;9.152;2023-08-01T10:03:49;18.29;91.39
65972;SHT31;52726;48.852;9.152;2023-08-01T10:08:46;18.28;91.34
65972;SHT31;52726;48.852;9.152;2023-08-01T10:11:16;18.19;92.29
65972;SHT31;52726;48.852;9.152;2023-08-01T10:13:42;18.11;92.76
65972;SHT31;52726;48.852;9.152;2023-08-01T10:16:09;18.00;91.99
65972;SHT31;52726;48.852;9.152;2023-08-01T10:18:36;17.98;93.53
65972;SHT31;52726;48.852;9.152;2023-08-01T10:21:03;18.00;93.94
65972;SHT31;52726;48.852;9.152;2023-08-01T10:23:30;17.97;93.25
65972;SHT31;52726;48.852;9.152;2023-08-01T10:25:56;17.94;92.34
65972;SHT31;52726;48.852;9.152;2023-08-01T10:28:33;17.88;91.51
65972;SHT31;52726;48.852;9.152;2023-08-01T10:31:13;17.87;90.94
65972;SHT31;52726;48.852;9.152;2023-08-01T10:33:40;17.85;89.98
65972;SHT31;52726;48.852;9.152;2023-08-01T10:36:16;18.02;88.85
65972;SHT31;52726;48.852;9.152;2023-08-01T10:38:57;18.67;86.41
65972;SHT31;52726;48.852;9.152;2023-08-01T10:41:32;19.21;86.27
65972;SHT31;52726;48.852;9.152;2023-08-01T10:44:12;19.39;80.52
65972;SHT31;52726;48.852;9.152;2023-08-01T10:46:53;19.51;80.96
65972;SHT31;52726;48.852;9.152;2023-08-01T10:49:20;19.72;78.68
65972;SHT31;52726;48.852;9.152;2023-08-01T10:51:47;19.97;80.27
65972;SHT31;52726;48.852;9.152;2023-08-01T10:54:20;20.10;79.30
65972;SHT31;52726;48.852;9.152;2023-08-01T10:56:46;19.66;79.89
65972;SHT31;52726;48.852;9.152;2023-08-01T10:59:13;19.32;81.37
65972;SHT31;52726;48.852;9.152;2023-08-01T11:01:44;19.61;80.44
65972;SHT31;52726;48.852;9.152;2023-08-01T11:04:20;19.56;78.78
65972;SHT31;52726;48.852;9.152;2023-08-01T11:06:51;19.65;76.70
65972;SHT31;52726;48.852;9.152;2023-08-01T11:09:21;19.90;77.06
65972;SHT31;52726;48.852;9.152;2023-08-01T11:11:48;20.11;76.80
65972;SHT31;52726;48.852;9.152;2023-08-01T11:14:14;20.49;74.36
65972;SHT31;52726;48.852;9.152;2023-08-01T11:16:40;20.99;73.84
65972;SHT31;52726;48.852;9.152;2023-08-01T11:19:06;21.35;72.92
65972;SHT31;52726;48.852;9.152;2023-08-01T11:21:31;21.13;73.13
65972;SHT31;52726;48.852;9.152;2023-08-01T11:24:06;21.28;72.52
65972;SHT31;52726;48.852;9.152;2023-08-01T11:26:32;21.10;72.84
65972;SHT31;52726;48.852;9.152;2023-08-01T11:29:01;21.31;72.29
65972;SHT31;52726;48.852;9.152;2023-08-01T11:31:27;20.99;71.54
65972;SHT31;52726;48.852;9.152;2023-08-01T11:33:59;21.10;71.78
65972;SHT31;52726;48.852;9.152;2023-08-01T11:36:26;20.89;70.47
65972;SHT31;52726;48.852;9.152;2023-08-01T11:38:52;20.80;70.55
65972;SHT31;52726;48.852;9.152;2023-08-01T11:41:18;20.45;72.00
65972;SHT31;52726;48.852;9.152;2023-08-01T11:43:43;20.71;69.88
65972;SHT31;52726;48.852;9.152;2023-08-01T11:46:09;20.77;69.78
65972;SHT31;52726;48.852;9.152;2023-08-01T11:48:35;20.87;68.71
65972;SHT31;52726;48.852;9.152;2023-08-01T11:51:01;21.02;68.29
65972;SHT31;52726;48.852;9.152;2023-08-01T11:53:28;21.38;67.87
65972;SHT31;52726;48.852;9.152;2023-08-01T11:55:54;21.26;64.69
65972;SHT31;52726;48.852;9.152;2023-08-01T11:58:35;20.94;64.98
65972;SHT31;52726;48.852;9.152;2023-08-01T12:01:11;21.11;65.84
65972;SHT31;52726;48.852;9.152;2023-08-01T12:03:48;21.02;66.33
65972;SHT31;52726;48.852;9.152;2023-08-01T12:06:14;20.69;65.81
65972;SHT31;52726;48.852;9.152;2023-08-01T12:08:41;20.59;67.62
65972;SHT31;52726;48.852;9.152;2023-08-01T12:11:27;20.77;67.18
65972;SHT31;52726;48.852;9.152;2023-08-01T12:14:03;21.00;64.35
65972;SHT31;52726;48.852;9.152;2023-08-01T12:16:29;21.21;65.37
65972;SHT31;52726;48.852;9.152;2023-08-01T12:18:55;20.96;63.58
65972;SHT31;52726;48.852;9.152;2023-08-01T12:21:20;21.11;64.86
65972;SHT31;52726;48.852;9.152;2023-08-01T12:23:46;21.45;65.06
65972;SHT31;52726;48.852;9.152;2023-08-01T12:26:11;21.21;61.63
65972;SHT31;52726;48.852;9.152;2023-08-01T12:28:37;21.14;62.31
65972;SHT31;52726;48.852;9.152;2023-08-01T12:31:03;21.17;64.19
65972;SHT31;52726;48.852;9.152;2023-08-01T12:33:29;21.38;61.24
65972;SHT31;52726;48.852;9.152;2023-08-01T12:35:54;21.45;60.82
65972;SHT31;52726;48.852;9.152;2023-08-01T12:38:20;21.68;62.82
65972;SHT31;52726;48.852;9.152;2023-08-01T12:40:45;21.81;59.12
65972;SHT31;52726;48.852;9.152;2023-08-01T12:43:12;22.03;60.35
65972;SHT31;52726;48.852;9.152;2023-08-01T12:45:37;22.02;57.15
65972;SHT31;52726;48.852;9.152;2023-08-01T12:48:03;21.81;58.41
65972;SHT31;52726;48.852;9.152;2023-08-01T12:50:28;21.82;57.43
65972;SHT31;52726;48.852;9.152;2023-08-01T12:52:53;21.89;58.26
65972;SHT31;52726;48.852;9.152;2023-08-01T12:55:19;22.06;59.80
65972;SHT31;52726;48.852;9.152;2023-08-01T12:57:44;22.09;58.94
65972;SHT31;52726;48.852;9.152;2023-08-01T13:00:10;22.30;60.14
65972;SHT31;52726;48.852;9.152;2023-08-01T13:02:36;22.26;58.04
65972;SHT31;52726;48.852;9.152;2023-08-01T13:05:02;21.92;57.20
65972;SHT31;52726;48.852;9.152;2023-08-01T13:07:28;21.72;58.43
65972;SHT31;52726;48.852;9.152;2023-08-01T13:09:56;21.77;59.95
65972;SHT31;52726;48.852;9.152;2023-08-01T13:12:21;21.86;58.73
65972;SHT31;52726;48.852;9.152;2023-08-01T13:14:47;21.96;56.75
65972;SHT31;52726;48.852;9.152;2023-08-01T13:17:12;22.06;57.93
65972;SHT31;52726;48.852;9.152;2023-08-01T13:19:37;22.21;57.83
65972;SHT31;52726;48.852;9.152;2023-08-01T13:22:03;22.21;57.83
65972;SHT31;52726;48.852;9.152;2023-08-01T13:24:29;22.21;56.56
65972;SHT31;52726;48.852;9.152;2023-08-01T13:26:54;22.37;58.28
65972;SHT31;52726;48.852;9.152;2023-08-01T13:29:19;22.53;56.86
65972;SHT31;52726;48.852;9.152;2023-08-01T13:31:45;22.60;55.84
65972;SHT31;52726;48.852;9.152;2023-08-01T13:34:10;22.60;58.39
65972;SHT31;52726;48.852;9.152;2023-08-01T13:36:35;22.82;58.06
65972;SHT31;52726;48.852;9.152;2023-08-01T13:39:01;22.92;55.75
65972;SHT31;52726;48.852;9.152;2023-08-01T13:41:27;22.82;57.30
65972;SHT31;52726;48.852;9.152;2023-08-01T13:43:52;22.94;56.50
65972;SHT31;52726;48.852;9.152;2023-08-01T13:46:18;22.82;55.60
65972;SHT31;52726;48.852;9.152;2023-08-01T13:48:47;22.46;56.47
65972;SHT31;52726;48.852;9.152;2023-08-01T13:51:13;22.47;57.22
65972;SHT31;52726;48.852;9.152;2023-08-01T13:53:39;22.63;56.03
65972;SHT31;52726;48.852;9.152;2023-08-01T13:56:08;22.63;55.95
65972;SHT31;52726;48.852;9.152;2023-08-01T13:58:33;22.78;54.44
65972;SHT31;52726;48.852;9.152;2023-08-01T14:01:06;22.81;55.53
65972;SHT31;52726;48.852;9.152;2023-08-01T14:03:37;22.68;56.48
65972;SHT31;52726;48.852;9.152;2023-08-01T14:06:10;22.69;56.86
65972;SHT31;52726;48.852;9.152;2023-08-01T14:08:40;22.75;56.41
65972;SHT31;52726;48.852;9.152;2023-08-01T14:11:07;22.87;56.74
65972;SHT31;52726;48.852;9.152;2023-08-01T14:13:33;22.48;55.70
65972;SHT31;52726;48.852;9.152;2023-08-01T14:15:59;22.37;56.60
65972;SHT31;52726;48.852;9.152;2023-08-01T14:18:25;22.55;55.25
65972;SHT31;52726;48.852;9.152;2023-08-01T14:20:50;22.60;56.42
65972;SHT31;52726;48.852;9.152;2023-08-01T14:23:16;22.74;57.22
65972;SHT31;52726;48.852;9.152;2023-08-01T14:25:42;22.79;57.58
65972;SHT31;52726;48.852;9.152;2023-08-01T14:28:07;23.02;57.36
65972;SHT31;52726;48.852;9.152;2023-08-01T14:30:32;23.18;55.90
65972;SHT31;52726;48.852;9.152;2023-08-01T14:33:04;23.06;55.19
65972;SHT31;52726;48.852;9.152;2023-08-01T14:35:30;23.09;53.07
65972;SHT31;52726;48.852;9.152;2023-08-01T14:37:56;23.05;55.07
65972;SHT31;52726;48.852;9.152;2023-08-01T14:43:35;23.15;53.02
65972;SHT31;52726;48.852;9.152;2023-08-01T14:46:01;23.34;54.96
65972;SHT31;52726;48.852;9.152;2023-08-01T14:48:26;23.33;54.09
65972;SHT31;52726;48.852;9.152;2023-08-01T14:50:52;23.45;54.13
65972;SHT31;52726;48.852;9.152;2023-08-01T14:53:17;23.56;52.63
65972;SHT31;52726;48.852;9.152;2023-08-01T14:55:43;23.26;52.76
65972;SHT31;52726;48.852;9.152;2023-08-01T14:58:08;23.29;52.13
65972;SHT31;52726;48.852;9.152;2023-08-01T15:00:35;23.33;53.41
65972;SHT31;52726;48.852;9.152;2023-08-01T15:03:01;23.42;53.85
65972;SHT31;52726;48.852;9.152;2023-08-01T15:05:26;23.38;52.51
65972;SHT31;52726;48.852;9.152;2023-08-01T15:07:51;23.40;53.07
65972;SHT31;52726;48.852;9.152;2023-08-01T15:10:17;23.36;53.15
65972;SHT31;52726;48.852;9.152;2023-08-01T15:12:42;22.88;53.23
65972;SHT31;52726;48.852;9.152;2023-08-01T15:15:08;23.01;53.94
65972;SHT31;52726;48.852;9.152;2023-08-01T15:17:33;22.94;53.17
65972;SHT31;52726;48.852;9.152;2023-08-01T15:20:00;22.92;51.97
65972;SHT31;52726;48.852;9.152;2023-08-01T15:22:28;22.61;52.95
65972;SHT31;52726;48.852;9.152;2023-08-01T15:24:53;22.24;53.10
65972;SHT31;52726;48.852;9.152;2023-08-01T15:27:24;22.21;54.27
65972;SHT31;52726;48.852;9.152;2023-08-01T15:29:50;22.34;53.46
65972;SHT31;52726;48.852;9.152;2023-08-01T15:32:16;22.50;53.58
65972;SHT31;52726;48.852;9.152;2023-08-01T15:34:42;22.67;54.14
65972;SHT31;52726;48.852;9.152;2023-08-01T15:37:08;22.76;53.91